Solsberry, Indiana
Current Conditions -  °F | °C
As of 7:53 AM on Sunday 23 Nov 2014 (Local Time) from KBMG Reporting Station
Clear Clear  
Wind Chill:   Ceiling: Unl
Heat Index:   Visibility: 10mi
Dew Point:   Wind: 6mph
Humidity: 71%   Direction: 160°SSE
Pressure: 29.89"   Gusts: NA
Location:  39.08°N, 86.76°W
Report Text: KBMG 231253Z 16005KT 10SM CLR 09/04 A2989 RMK AO2 SLP122 T00940044
Loading
Personal Weather Stations






























Interactive Weather Map New forecast layout! Learn more

10-Day Weather Forecast

Advertisements
Track Severe Weather on mobile